Nulltown, Indiana
Current Conditions -  °F | °C
As of 1:35 PM on Thursday 30 Oct 2014 (Local Time) from KI67 Reporting Station
Scattered Clouds Scattered Clouds  
Wind Chill: 11°   Ceiling: Unl
Heat Index: 11°   Visibility: 10mi
Dew Point:   Wind: 3mph
Humidity: 47%   Direction: 220°SW
Pressure: 30.13"   Gusts: NA
Location:  39.645°N, 85.1744°W
Report Text: KI67 301735Z AUTO 22003KT 10SM SCT043 11/00 A3013 RMK AO1
Loading
Personal Weather Stations






























Interactive Weather Map
Tropical Storm Tracking
New forecast layout! Learn more

10-Day Weather Forecast

Advertisements
Track Severe Weather on mobile